Clarks, Louisiana
Current Conditions -  °F | °C
As of 7:53 AM on Thursday 23 Oct 2014 (Local Time) from KMLU Reporting Station
Clear Clear  
Wind Chill: 52°   Ceiling: Unl
Heat Index: 52°   Visibility: 10mi
Dew Point: 47°   Wind: 8mph
Humidity: 83%   Direction: 70°ENE
Pressure: 30.16"   Gusts: NA
Location:  32.03°N, 92.14°W
Report Text: KMLU 231253Z 07007KT 10SM CLR 11/08 A3016 RMK AO2 SLP211 T01110083
Loading
Personal Weather Stations






























Interactive Weather Map
Tropical Storm Tracking
New forecast layout! Learn more

10-Day Weather Forecast

Advertisements
Track Severe Weather on mobile